Time;durP1;ratioP1;P1;durP2;ratioP2;P2;SDS_P1;SDS_P2;PMS_P1;PMS_P2;Temp;Humidity;BMP_temperature;BMP_pressure;BME280_temperature;BME280_humidity;BME280_pressure;Samples;Min_cycle;Max_cycle;Signal;HPM_P1;HPM_P2
2022/10/15 00:01:26;;;;;;;30.08;13.50;;;;;;;16.45;63.12;100637.19;5053846;28;20053;-73
2022/10/15 00:03:54;;;;;;;69.82;17.85;;;;;;;16.42;63.36;100628.53;5053709;28;20103;-73
2022/10/15 00:06:21;;;;;;;22.85;13.75;;;;;;;16.40;63.50;100639.53;5053846;28;20442;-72
2022/10/15 00:08:47;;;;;;;62.53;15.82;;;;;;;16.37;63.06;100637.13;5054101;28;20044;-72
2022/10/15 00:11:20;;;;;;;40.35;14.65;;;;;;;16.35;63.44;100636.41;5053886;28;20384;-72
2022/10/15 00:13:51;;;;;;;24.33;16.00;;;;;;;16.33;63.13;100638.38;5053748;28;20033;-72
2022/10/15 00:16:22;;;;;;;20.55;14.57;;;;;;;16.32;63.09;100647.53;5052036;28;20467;-72
2022/10/15 00:18:50;;;;;;;17.35;13.82;;;;;;;16.30;63.14;100649.53;5052468;28;20041;-71
2022/10/15 00:21:19;;;;;;;27.02;16.02;;;;;;;16.29;62.99;100646.97;5052306;28;20244;-71
2022/10/15 00:23:47;;;;;;;19.33;14.48;;;;;;;16.27;63.42;100640.84;5052296;28;20037;-72
2022/10/15 00:26:24;;;;;;;25.10;10.48;;;;;;;16.23;63.05;100643.00;5053504;28;20052;-72
2022/10/15 00:28:54;;;;;;;130.63;17.50;;;;;;;16.19;63.27;100644.31;5053676;28;20041;-72
2022/10/15 00:31:23;;;;;;;113.43;13.18;;;;;;;16.16;62.90;100642.75;5053559;28;20487;-72
2022/10/15 00:33:53;;;;;;;42.78;10.27;;;;;;;16.11;62.83;100647.78;5052670;28;20562;-73
2022/10/15 00:36:24;;;;;;;22.63;9.95;;;;;;;16.06;62.90;100644.66;5053356;28;20045;-73
2022/10/15 00:38:51;;;;;;;23.02;10.10;;;;;;;16.02;63.22;100648.66;5053312;28;20044;-73
2022/10/15 00:41:34;;;;;;;14.00;9.85;;;;;;;15.98;63.38;100646.41;5051989;28;20056;-72
2022/10/15 00:44:25;;;;;;;16.75;10.55;;;;;;;15.94;63.22;100650.41;5052961;28;20041;-74
2022/10/15 00:47:05;;;;;;;20.83;10.23;;;;;;;15.92;62.88;100650.56;5052875;28;20114;-73
2022/10/15 00:49:35;;;;;;;14.48;10.38;;;;;;;15.90;63.00;100655.28;5052281;28;20048;-73
2022/10/15 00:52:11;;;;;;;38.55;11.65;;;;;;;15.87;63.22;100645.59;5051591;28;20040;-74
2022/10/15 00:54:46;;;;;;;11.15;9.88;;;;;;;15.85;63.05;100657.56;5051395;28;20049;-73
2022/10/15 00:57:13;;;;;;;10.45;9.15;;;;;;;15.85;62.94;100660.28;5053064;28;20327;-72
2022/10/15 00:59:48;;;;;;;15.80;9.73;;;;;;;15.84;63.09;100656.72;5052983;28;20033;-73
2022/10/15 01:02:18;;;;;;;12.07;8.95;;;;;;;15.85;63.17;100652.16;5051151;28;20059;-74
2022/10/15 01:04:46;;;;;;;12.43;8.57;;;;;;;15.85;63.03;100650.28;5052752;28;20090;-74
2022/10/15 01:07:13;;;;;;;22.65;11.18;;;;;;;15.83;62.90;100654.16;5052766;28;20049;-74
2022/10/15 01:09:43;;;;;;;17.35;10.60;;;;;;;15.81;62.85;100648.03;5051605;28;20434;-74
2022/10/15 01:12:18;;;;;;;12.40;9.10;;;;;;;15.78;63.36;100656.44;5050492;28;20071;-73
2022/10/15 01:15:03;;;;;;;12.50;9.70;;;;;;;15.76;63.32;100653.88;5051677;28;20052;-74
2022/10/15 01:17:54;;;;;;;18.08;8.35;;;;;;;15.75;63.29;100651.31;5052696;28;20083;-74
2022/10/15 01:20:51;;;;;;;10.07;7.75;;;;;;;15.74;63.61;100655.88;5052597;28;20116;-74
2022/10/15 01:24:00;;;;;;;11.63;9.23;;;;;;;15.72;63.19;100647.06;5051990;28;20585;-74
2022/10/15 01:26:51;;;;;;;15.05;10.98;;;;;;;15.71;63.68;100631.81;5052380;28;20045;-73
2022/10/15 01:29:33;;;;;;;15.68;11.80;;;;;;;15.74;63.47;100627.97;5051226;28;20041;-73
2022/10/15 01:32:06;;;;;;;24.90;14.90;;;;;;;15.76;63.70;100625.97;5052405;28;20131;-75
2022/10/15 01:34:53;;;;;;;23.27;15.35;;;;;;;15.79;63.67;100620.25;5051088;28;20080;-74
2022/10/15 01:37:39;;;;;;;26.50;16.63;;;;;;;15.82;63.90;100615.38;5031020;28;20123;-73
2022/10/15 01:40:35;;;;;;;25.17;17.17;;;;;;;15.86;63.98;100618.66;5032357;28;20391;-73
2022/10/15 01:43:05;;;;;;;25.27;18.67;;;;;;;15.91;63.83;100612.78;5029566;28;20499;-73
2022/10/15 01:46:08;;;;;;;26.40;19.10;;;;;;;15.95;63.85;100623.19;5031347;28;20296;-74
2022/10/15 01:48:42;;;;;;;29.67;19.42;;;;;;;16.02;63.98;100615.31;5038742;28;20040;-74
2022/10/15 01:51:11;;;;;;;33.67;22.17;;;;;;;16.05;63.91;100618.56;5051955;28;20044;-74
2022/10/15 01:53:39;;;;;;;32.20;22.08;;;;;;;16.11;64.33;100619.81;5051828;28;20033;-73
2022/10/15 01:56:11;;;;;;;28.83;21.05;;;;;;;16.15;64.09;100605.81;5050330;28;20045;-73
2022/10/15 01:58:42;;;;;;;32.38;21.15;;;;;;;16.20;64.12;100608.09;5050268;28;20048;-73
2022/10/15 02:01:09;;;;;;;36.15;22.02;;;;;;;16.26;64.11;100609.34;5050566;28;20053;-73
2022/10/15 02:04:01;;;;;;;29.48;21.55;;;;;;;16.29;64.31;100601.75;5050285;28;20056;-72
2022/10/15 02:06:40;;;;;;;28.67;22.23;;;;;;;16.33;64.52;100602.31;5050490;28;20134;-73
2022/10/15 02:09:31;;;;;;;30.23;21.08;;;;;;;16.36;64.11;100607.44;5050539;28;20458;-72
2022/10/15 02:12:16;;;;;;;30.85;21.55;;;;;;;16.37;64.42;100599.16;5049755;28;20045;-73
2022/10/15 02:14:57;;;;;;;27.02;20.63;;;;;;;16.41;64.26;100605.13;5050388;28;20044;-74
2022/10/15 02:17:40;;;;;;;28.05;20.77;;;;;;;16.41;64.68;100608.69;5051566;28;20116;-74
2022/10/15 02:20:19;;;;;;;31.52;20.98;;;;;;;16.45;64.33;100601.13;5051401;28;20384;-73
2022/10/15 02:22:55;;;;;;;28.90;20.92;;;;;;;16.46;64.36;100598.25;5051061;28;20086;-73
2022/10/15 02:25:24;;;;;;;32.88;22.45;;;;;;;16.48;64.83;100593.53;5050048;28;20040;-74
2022/10/15 02:27:55;;;;;;;29.58;22.02;;;;;;;16.49;64.55;100589.81;5051482;28;20110;-74
2022/10/15 02:30:23;;;;;;;32.17;22.58;;;;;;;16.51;64.77;100587.81;5050191;28;20475;-72
2022/10/15 02:32:53;;;;;;;28.67;21.25;;;;;;;16.55;64.92;100582.94;5049237;28;20041;-74
2022/10/15 02:35:23;;;;;;;28.95;21.95;;;;;;;16.59;64.97;100588.88;5030088;28;20049;-73
2022/10/15 02:37:53;;;;;;;27.88;21.83;;;;;;;16.62;64.67;100580.44;5046588;28;20046;-73
2022/10/15 02:40:23;;;;;;;30.42;21.80;;;;;;;16.65;64.73;100588.28;5031306;28;20419;-74
2022/10/15 02:42:50;;;;;;;32.80;21.40;;;;;;;16.68;64.99;100580.72;5050155;28;20048;-74
2022/10/15 02:45:20;;;;;;;28.52;21.02;;;;;;;16.69;65.12;100577.00;5050081;28;20048;-73
2022/10/15 02:47:46;;;;;;;29.17;21.10;;;;;;;16.71;64.80;100574.97;5051131;28;20044;-73
2022/10/15 02:50:13;;;;;;;31.63;22.48;;;;;;;16.74;64.77;100571.09;5049940;28;20061;-74
2022/10/15 02:52:39;;;;;;;28.52;21.85;;;;;;;16.76;64.80;100564.53;5049210;28;20507;-73
2022/10/15 02:55:07;;;;;;;27.05;21.33;;;;;;;16.78;64.94;100572.50;5049839;28;20115;-75
2022/10/15 02:57:34;;;;;;;25.60;19.30;;;;;;;16.79;65.11;100569.63;5083355;28;20048;-73
2022/10/15 03:00:01;;;;;;;28.23;21.50;;;;;;;16.81;65.08;100572.19;5033212;28;20060;-73
2022/10/15 03:02:28;;;;;;;29.45;21.65;;;;;;;16.81;65.05;100561.34;5050806;28;20099;-73
2022/10/15 03:04:55;;;;;;;29.70;22.05;;;;;;;16.82;64.82;100553.03;5049071;28;20056;-73
2022/10/15 03:07:22;;;;;;;29.58;21.67;;;;;;;16.83;65.07;100548.47;5049467;28;20064;-73
2022/10/15 03:09:49;;;;;;;28.50;20.52;;;;;;;16.84;65.00;100550.19;5036485;28;20072;-74
2022/10/15 03:12:16;;;;;;;25.70;20.15;;;;;;;16.85;64.88;100543.75;5053182;28;20136;-73
2022/10/15 03:14:48;;;;;;;26.40;20.80;;;;;;;16.89;65.10;100547.84;5053941;28;20059;-73
2022/10/15 03:17:15;;;;;;;28.73;20.42;;;;;;;16.89;64.67;100545.13;5054780;28;20071;-73
2022/10/15 03:19:42;;;;;;;24.70;19.35;;;;;;;16.90;64.72;100546.84;5053796;28;20041;-73
2022/10/15 03:22:09;;;;;;;28.58;21.42;;;;;;;16.88;64.68;100539.88;5053176;28;20037;-73
2022/10/15 03:24:50;;;;;;;25.23;19.33;;;;;;;16.84;64.61;100544.75;5033679;28;20059;-72
2022/10/15 03:27:22;;;;;;;30.02;21.17;;;;;;;16.82;64.79;100544.91;5033388;28;20400;-71
2022/10/15 03:29:49;;;;;;;26.67;19.23;;;;;;;16.80;64.55;100541.50;5033799;28;20380;-72
2022/10/15 03:32:16;;;;;;;24.95;19.23;;;;;;;16.79;64.57;100544.38;5036397;28;20049;-73
2022/10/15 03:34:46;;;;;;;27.17;19.52;;;;;;;16.78;64.98;100537.25;5053733;28;20052;-72
2022/10/15 03:37:16;;;;;;;27.65;19.40;;;;;;;16.76;64.78;100544.69;5033441;28;20072;-73
2022/10/15 03:39:42;;;;;;;29.25;20.25;;;;;;;16.74;64.42;100541.28;5034632;28;20072;-74
2022/10/15 03:42:10;;;;;;;27.05;20.55;;;;;;;16.72;64.59;100536.00;5035161;28;20046;-72
2022/10/15 03:44:43;;;;;;;30.60;21.35;;;;;;;16.72;64.86;100538.72;5053244;28;20537;-73
2022/10/15 03:47:13;;;;;;;32.15;22.48;;;;;;;16.72;64.64;100544.16;5053173;28;20490;-74
2022/10/15 03:49:44;;;;;;;30.17;22.02;;;;;;;16.71;64.93;100536.16;5053016;28;20045;-73
2022/10/15 03:52:10;;;;;;;37.30;23.45;;;;;;;16.70;64.73;100537.19;5052860;28;20051;-73
2022/10/15 03:54:39;;;;;;;31.77;21.75;;;;;;;16.71;65.05;100536.16;5053954;28;20103;-73
2022/10/15 03:57:06;;;;;;;30.35;22.27;;;;;;;16.71;64.75;100538.88;5052694;28;20048;-74
2022/10/15 03:59:38;;;;;;;33.08;22.90;;;;;;;16.73;65.29;100536.84;5052907;28;20041;-74
2022/10/15 04:02:05;;;;;;;31.42;21.83;;;;;;;16.74;64.84;100541.28;5052573;28;20047;-74
2022/10/15 04:04:33;;;;;;;34.95;21.98;;;;;;;16.75;65.03;100538.41;5052600;28;20044;-74
2022/10/15 04:06:59;;;;;;;33.15;23.33;;;;;;;16.77;64.94;100532.81;5054282;28;20479;-74
2022/10/15 04:09:28;;;;;;;33.05;23.30;;;;;;;16.77;65.12;100530.97;5052657;28;20075;-74
2022/10/15 04:12:15;;;;;;;33.28;23.08;;;;;;;16.80;65.03;100524.38;5053715;28;20136;-72
2022/10/15 04:14:46;;;;;;;38.65;24.42;;;;;;;16.79;65.35;100518.09;5052661;28;20512;-72
2022/10/15 04:17:13;;;;;;;34.35;24.58;;;;;;;16.79;65.01;100528.09;5051901;28;20514;-73
2022/10/15 04:19:43;;;;;;;35.22;22.88;;;;;;;16.78;65.43;100521.81;5053467;28;20068;-73
2022/10/15 04:22:09;;;;;;;37.10;24.40;;;;;;;16.79;65.47;100525.38;5035920;28;20049;-73
2022/10/15 04:24:53;;;;;;;35.13;24.08;;;;;;;16.80;65.53;100527.94;5052512;28;20048;-73
2022/10/15 04:27:27;;;;;;;37.35;23.83;;;;;;;16.83;65.28;100538.47;5052017;28;20052;-74
2022/10/15 04:30:04;;;;;;;38.67;25.63;;;;;;;16.84;65.35;100532.03;5032441;28;20088;-73
2022/10/15 04:32:31;;;;;;;40.13;24.75;;;;;;;16.86;65.46;100531.88;5015801;28;20144;-73
2022/10/15 04:35:01;;;;;;;36.17;24.15;;;;;;;16.88;65.61;100543.44;5034336;28;20115;-74
2022/10/15 04:37:46;;;;;;;38.67;24.63;;;;;;;16.90;65.22;100551.41;5051910;28;20040;-72
2022/10/15 04:40:14;;;;;;;36.92;23.08;;;;;;;16.92;65.76;100549.41;5052224;28;20111;-72
2022/10/15 04:42:41;;;;;;;35.25;23.08;;;;;;;16.93;65.48;100545.66;5051827;28;20132;-71
2022/10/15 04:45:09;;;;;;;38.17;24.48;;;;;;;16.91;65.39;100536.84;5053499;28;20049;-72
2022/10/15 04:47:36;;;;;;;39.35;24.77;;;;;;;16.93;65.75;100541.09;5051550;28;20282;-74
2022/10/15 04:50:08;;;;;;;41.80;24.65;;;;;;;16.95;65.80;100546.38;5051711;28;20469;-72
2022/10/15 04:52:53;;;;;;;42.50;23.98;;;;;;;16.98;65.51;100538.75;5053265;28;20362;-72
2022/10/15 04:55:22;;;;;;;37.42;24.60;;;;;;;16.98;65.62;100538.75;5051912;28;20048;-72
2022/10/15 04:57:54;;;;;;;42.58;24.55;;;;;;;17.00;65.73;100538.59;5051223;28;20060;-72
2022/10/15 05:00:26;;;;;;;41.78;24.50;;;;;;;17.01;65.67;100538.44;5051446;28;20132;-72
2022/10/15 05:03:15;;;;;;;40.85;24.17;;;;;;;17.02;65.57;100536.59;5052760;28;20061;-72
2022/10/15 05:05:49;;;;;;;39.28;24.00;;;;;;;17.02;65.71;100529.31;5051891;28;20048;-72
2022/10/15 05:08:15;;;;;;;41.00;24.75;;;;;;;17.04;65.87;100535.41;5051012;28;20474;-73
2022/10/15 05:11:03;;;;;;;36.25;24.50;;;;;;;17.07;65.85;100543.25;5051371;28;20041;-74
2022/10/15 05:13:31;;;;;;;40.17;26.42;;;;;;;17.09;65.76;100540.38;5051391;28;20140;-73
2022/10/15 05:16:16;;;;;;;45.03;26.20;;;;;;;17.07;65.76;100532.38;5051661;28;20052;-73
2022/10/15 05:18:45;;;;;;;55.33;30.50;;;;;;;17.10;65.70;100523.13;5051010;28;20045;-74
2022/10/15 05:21:13;;;;;;;51.42;29.60;;;;;;;17.11;65.82;100533.81;5052717;28;20033;-73
2022/10/15 05:23:43;;;;;;;48.03;27.75;;;;;;;17.12;65.61;100540.09;5051058;28;20099;-72
2022/10/15 05:26:31;;;;;;;49.03;28.77;;;;;;;17.11;66.10;100538.38;5052447;28;20132;-73
2022/10/15 05:28:59;;;;;;;48.55;28.98;;;;;;;17.11;66.01;100528.38;5050925;28;20274;-74
2022/10/15 05:31:31;;;;;;;52.05;29.63;;;;;;;17.13;65.95;100548.06;5034340;28;20521;-73
2022/10/15 05:34:15;;;;;;;44.05;27.05;;;;;;;17.15;65.86;100543.34;5051342;28;20252;-74
2022/10/15 05:36:48;;;;;;;49.22;26.35;;;;;;;17.18;66.15;100542.16;5035495;28;20041;-73
2022/10/15 05:39:15;;;;;;;49.53;28.77;;;;;;;17.18;66.31;100544.88;5052013;28;20049;-73
2022/10/15 05:41:43;;;;;;;57.03;29.25;;;;;;;17.20;66.30;100545.56;5050413;28;20189;-73
2022/10/15 05:44:14;;;;;;;49.38;27.85;;;;;;;17.21;66.26;100558.13;5052227;28;20102;-73
2022/10/15 05:46:41;;;;;;;47.47;26.40;;;;;;;17.21;66.34;100551.84;5052423;28;20049;-72
2022/10/15 05:49:12;;;;;;;50.08;27.27;;;;;;;17.22;65.88;100550.84;5050915;28;20052;-72
2022/10/15 05:51:46;;;;;;;53.45;27.85;;;;;;;17.22;66.04;100554.41;5050094;28;20513;-73
2022/10/15 05:54:23;;;;;;;49.40;26.25;;;;;;;17.23;66.03;100557.97;5050797;28;20049;-73
2022/10/15 05:56:49;;;;;;;50.83;27.02;;;;;;;17.24;66.15;100557.81;5051861;28;20045;-74
2022/10/15 05:59:16;;;;;;;46.00;27.30;;;;;;;17.26;66.04;100541.38;5034194;28;20037;-73
2022/10/15 06:01:42;;;;;;;47.85;26.48;;;;;;;17.27;66.40;100553.94;5050393;28;20052;-73
2022/10/15 06:04:11;;;;;;;47.28;26.77;;;;;;;17.27;66.31;100559.34;5050261;28;20139;-73
2022/10/15 06:06:40;;;;;;;41.42;25.38;;;;;;;17.30;66.35;100553.59;5050619;28;20049;-74
2022/10/15 06:09:07;;;;;;;43.83;25.80;;;;;;;17.30;66.33;100553.59;5051750;28;20041;-73
2022/10/15 06:11:35;;;;;;;41.30;24.95;;;;;;;17.31;66.06;100548.03;5051644;28;20091;-73
2022/10/15 06:14:04;;;;;;;40.53;23.98;;;;;;;17.34;66.08;100546.84;5051877;28;20044;-71
2022/10/15 06:16:30;;;;;;;40.05;23.58;;;;;;;17.35;66.06;100541.25;5050896;28;20106;-72
2022/10/15 06:18:57;;;;;;;39.40;24.15;;;;;;;17.38;66.38;100540.09;5051740;28;20033;-73
2022/10/15 06:21:24;;;;;;;35.03;22.13;;;;;;;17.41;66.37;100542.47;5051491;28;20037;-73
2022/10/15 06:23:54;;;;;;;35.10;21.45;;;;;;;17.42;66.01;100536.88;5051830;28;20044;-75
2022/10/15 06:26:21;;;;;;;33.25;21.27;;;;;;;17.45;65.85;100535.72;5051630;28;20106;-74
2022/10/15 06:28:47;;;;;;;37.63;22.27;;;;;;;17.47;66.10;100539.13;5050915;28;20533;-69
2022/10/15 06:31:14;;;;;;;32.63;21.33;;;;;;;17.48;65.81;100538.09;5051748;28;20052;-67
2022/10/15 06:33:41;;;;;;;32.72;21.95;;;;;;;17.48;66.06;100546.25;5051717;28;20095;-67
2022/10/15 06:36:12;;;;;;;33.05;21.75;;;;;;;17.48;66.10;100546.25;5053004;28;20076;-67
2022/10/15 06:38:39;;;;;;;28.33;20.40;;;;;;;17.47;65.82;100542.69;5051270;28;20487;-67
2022/10/15 06:41:06;;;;;;;31.13;20.58;;;;;;;17.48;66.09;100546.25;5050320;28;20561;-68
2022/10/15 06:43:33;;;;;;;34.72;20.08;;;;;;;17.48;65.87;100549.81;5051130;28;20037;-68
2022/10/15 06:46:03;;;;;;;30.27;19.52;;;;;;;17.47;65.97;100556.25;5049743;28;20041;-66
2022/10/15 06:48:31;;;;;;;31.65;18.08;;;;;;;17.48;65.82;100548.97;5051209;28;20072;-67
2022/10/15 06:50:59;;;;;;;24.95;17.90;;;;;;;17.47;66.00;100552.69;5049335;28;20538;-67
2022/10/15 06:53:27;;;;;;;37.65;20.33;;;;;;;17.50;66.17;100555.09;5050190;28;20048;-66
2022/10/15 06:56:00;;;;;;;28.92;18.60;;;;;;;17.52;66.23;100555.78;5050898;28;20391;-67
2022/10/15 06:58:27;;;;;;;28.73;19.70;;;;;;;17.53;65.96;100552.06;5050956;28;20395;-67
2022/10/15 07:01:05;;;;;;;29.15;20.02;;;;;;;17.55;66.17;100544.59;5050889;28;20037;-67
2022/10/15 07:03:32;;;;;;;28.85;19.23;;;;;;;17.58;66.07;100546.13;5049870;28;20071;-67
2022/10/15 07:06:03;;;;;;;29.40;18.50;;;;;;;17.60;66.01;100544.13;5051057;28;20052;-67
2022/10/15 07:08:31;;;;;;;31.02;19.38;;;;;;;17.62;65.82;100548.38;5050761;28;20449;-67
2022/10/15 07:10:59;;;;;;;30.13;19.35;;;;;;;17.63;66.12;100551.94;5050686;28;20045;-67
2022/10/15 07:13:28;;;;;;;27.50;18.25;;;;;;;17.63;65.83;100551.94;5050043;28;20033;-68
2022/10/15 07:16:03;;;;;;;27.42;18.52;;;;;;;17.62;66.20;100545.66;5050249;28;20454;-69
2022/10/15 07:18:29;;;;;;;27.88;18.80;;;;;;;17.64;65.89;100554.50;5050575;28;20072;-68
2022/10/15 07:20:56;;;;;;;29.05;19.35;;;;;;;17.69;66.28;100552.16;5050038;28;20126;-68
2022/10/15 07:23:23;;;;;;;30.48;19.30;;;;;;;17.72;66.31;100551.84;5050549;28;20037;-70
2022/10/15 07:25:55;;;;;;;31.88;18.67;;;;;;;17.77;66.14;100563.06;5050192;28;20106;-69
2022/10/15 07:28:22;;;;;;;28.45;18.02;;;;;;;17.80;65.96;100561.91;5049359;28;20029;-69
2022/10/15 07:30:49;;;;;;;25.17;17.63;;;;;;;17.84;65.99;100565.16;5050289;28;20574;-69
2022/10/15 07:33:15;;;;;;;29.48;19.08;;;;;;;17.87;66.07;100551.25;5050586;28;20048;-69
2022/10/15 07:35:52;;;;;;;28.65;19.33;;;;;;;17.92;66.07;100547.03;5050373;28;20037;-70
2022/10/15 07:38:18;;;;;;;33.40;20.13;;;;;;;17.96;66.23;100545.69;5049628;28;20045;-69
2022/10/15 07:40:45;;;;;;;27.73;18.75;;;;;;;18.00;66.01;100552.50;5049269;28;20051;-69
2022/10/15 07:43:12;;;;;;;30.50;20.33;;;;;;;18.04;66.14;100542.16;5050238;28;20071;-69
2022/10/15 07:45:46;;;;;;;29.67;19.65;;;;;;;18.06;65.95;100545.56;5050564;28;20522;-69
2022/10/15 07:48:13;;;;;;;30.40;19.88;;;;;;;18.09;66.06;100534.38;5050248;28;20049;-69
2022/10/15 07:50:39;;;;;;;30.75;19.70;;;;;;;18.10;65.95;100530.63;5050529;28;20095;-71
2022/10/15 07:53:08;;;;;;;32.20;19.60;;;;;;;18.12;65.94;100530.47;5050120;28;20041;-71
2022/10/15 07:55:36;;;;;;;31.75;19.77;;;;;;;18.16;65.97;100524.53;5053038;28;20045;-72
2022/10/15 07:58:04;;;;;;;30.50;20.05;;;;;;;18.20;65.93;100520.47;5053212;28;20053;-73
2022/10/15 08:00:32;;;;;;;26.05;17.65;;;;;;;18.23;66.26;100516.56;5053527;28;20033;-72
2022/10/15 08:03:03;;;;;;;33.78;19.92;;;;;;;18.27;66.24;100516.06;5051881;28;20384;-72
2022/10/15 08:05:30;;;;;;;28.52;18.52;;;;;;;18.32;66.19;100516.41;5053911;28;20048;-72
2022/10/15 08:07:56;;;;;;;29.67;18.80;;;;;;;18.38;66.12;100521.19;5052349;28;20041;-72
2022/10/15 08:10:23;;;;;;;25.23;16.58;;;;;;;18.42;65.98;100522.53;5052756;28;20049;-72
2022/10/15 08:12:49;;;;;;;24.08;16.63;;;;;;;18.46;65.88;100527.66;5053486;28;20037;-72
2022/10/15 08:15:17;;;;;;;22.42;15.82;;;;;;;18.48;65.89;100521.03;5053671;28;20071;-72
2022/10/15 08:17:43;;;;;;;28.38;16.00;;;;;;;18.57;65.85;100520.00;5053055;28;20116;-72
2022/10/15 08:20:13;;;;;;;22.08;15.40;;;;;;;18.67;65.89;100509.88;5053336;28;20549;-72
2022/10/15 08:22:40;;;;;;;21.83;15.68;;;;;;;18.78;66.15;100514.13;5053272;28;20040;-72
2022/10/15 08:25:10;;;;;;;22.38;15.65;;;;;;;18.88;65.81;100513.97;5053785;28;20049;-71
2022/10/15 08:27:36;;;;;;;18.42;13.75;;;;;;;19.00;65.69;100513.44;5052808;28;20507;-71
2022/10/15 08:30:04;;;;;;;20.20;13.50;;;;;;;19.13;65.82;100510.19;5053572;28;20033;-71
2022/10/15 08:32:35;;;;;;;16.75;12.48;;;;;;;19.27;65.71;100503.19;5052970;28;20095;-71
2022/10/15 08:35:06;;;;;;;17.77;12.50;;;;;;;19.36;65.31;100510.34;5052260;28;20450;-71
2022/10/15 08:37:33;;;;;;;19.90;12.63;;;;;;;19.44;65.18;100504.88;5051646;28;20041;-72
2022/10/15 08:39:59;;;;;;;16.83;12.55;;;;;;;19.47;65.02;100504.53;5053204;28;20045;-71
2022/10/15 08:42:36;;;;;;;16.30;11.77;;;;;;;19.50;64.73;100495.16;5053113;28;20041;-71
2022/10/15 08:45:15;;;;;;;15.27;10.73;;;;;;;19.51;64.60;100492.25;5053066;28;20053;-70
2022/10/15 08:47:50;;;;;;;15.65;11.18;;;;;;;19.53;64.33;100482.06;5053097;28;20044;-70
2022/10/15 08:50:19;;;;;;;15.83;11.00;;;;;;;19.59;64.59;100489.53;5053008;28;20106;-70
2022/10/15 08:52:49;;;;;;;13.45;9.77;;;;;;;19.65;64.29;100491.56;5052694;28;20287;-70
2022/10/15 08:55:19;;;;;;;12.60;9.20;;;;;;;19.72;64.49;100486.25;5052613;28;20267;-71
2022/10/15 08:58:20;;;;;;;13.02;8.98;;;;;;;19.80;64.34;100479.91;5051572;28;20478;-70
2022/10/15 09:01:00;;;;;;;14.45;9.65;;;;;;;19.88;64.37;100485.31;5051520;28;20495;-70
2022/10/15 09:03:32;;;;;;;14.40;9.30;;;;;;;19.92;64.04;100475.75;5052502;28;20565;-71
2022/10/15 09:06:18;;;;;;;10.38;8.05;;;;;;;19.94;63.90;100474.56;5051092;28;20479;-71
2022/10/15 09:09:18;;;;;;;12.65;9.10;;;;;;;19.97;64.06;100468.75;5051583;28;20047;-72
2022/10/15 09:12:01;;;;;;;11.43;8.20;;;;;;;20.02;63.98;100470.94;5052653;28;20166;-71
2022/10/15 09:14:34;;;;;;;12.13;8.63;;;;;;;20.03;63.66;100459.00;5052155;28;20091;-72
2022/10/15 09:17:13;;;;;;;14.23;9.40;;;;;;;20.04;63.48;100451.69;5052395;28;20033;-71
2022/10/15 09:19:43;;;;;;;9.63;7.53;;;;;;;20.06;63.58;100455.06;5052455;28;20055;-71
2022/10/15 09:22:16;;;;;;;13.07;8.45;;;;;;;20.05;63.45;100459.69;5052270;28;20469;-72
2022/10/15 09:24:47;;;;;;;10.20;7.45;;;;;;;20.06;63.13;100458.66;5052227;28;20037;-71
2022/10/15 09:27:13;;;;;;;10.23;7.65;;;;;;;20.04;63.09;100451.69;5052292;28;20033;-72
2022/10/15 09:29:58;;;;;;;12.10;8.50;;;;;;;19.99;63.32;100450.34;5052330;28;20033;-71
2022/10/15 09:32:47;;;;;;;10.23;6.90;;;;;;;19.98;63.10;100454.09;5052056;28;20049;-71
2022/10/15 09:35:28;;;;;;;10.60;7.10;;;;;;;19.97;63.33;100448.81;5052016;28;20392;-71
2022/10/15 09:38:32;;;;;;;12.05;7.82;;;;;;;19.94;63.03;100450.03;5051088;28;20044;-73
2022/10/15 09:41:17;;;;;;;9.48;7.07;;;;;;;19.92;63.00;100451.25;5050855;28;20052;-72
2022/10/15 09:43:47;;;;;;;10.07;7.10;;;;;;;19.88;63.17;100444.44;5051554;28;20518;-72
2022/10/15 09:46:18;;;;;;;10.90;7.57;;;;;;;19.87;63.06;100440.03;5051840;28;20111;-72
2022/10/15 09:49:01;;;;;;;12.88;8.15;;;;;;;19.87;63.30;100443.59;5052008;28;20499;-72
2022/10/15 09:51:49;;;;;;;10.45;7.93;;;;;;;19.87;63.42;100434.56;5052201;28;20049;-72
2022/10/15 09:54:27;;;;;;;13.18;8.88;;;;;;;19.86;63.03;100427.44;5051596;28;20487;-72
2022/10/15 09:56:56;;;;;;;14.75;9.43;;;;;;;19.84;63.24;100429.47;5051365;28;20395;-72
2022/10/15 09:59:24;;;;;;;14.48;9.27;;;;;;;19.83;63.26;100428.63;5051818;28;20037;-73
2022/10/15 10:02:12;;;;;;;16.30;9.60;;;;;;;19.86;63.30;100427.44;5051474;28;20037;-73
2022/10/15 10:04:43;;;;;;;17.10;10.65;;;;;;;19.87;63.31;100426.41;5051190;28;20442;-74
2022/10/15 10:07:26;;;;;;;11.52;9.13;;;;;;;19.84;63.13;100426.75;5051329;28;20056;-73
2022/10/15 10:09:55;;;;;;;14.75;9.30;;;;;;;19.84;63.21;100427.59;5050289;28;20048;-72
2022/10/15 10:12:29;;;;;;;12.60;9.23;;;;;;;19.82;63.36;100426.09;5050864;28;20037;-72
2022/10/15 10:15:20;;;;;;;13.63;8.63;;;;;;;19.81;63.47;100425.25;5051371;28;20306;-72
2022/10/15 10:17:54;;;;;;;13.57;9.10;;;;;;;19.83;63.42;100423.19;5051046;28;20041;-72
2022/10/15 10:20:23;;;;;;;12.93;8.48;;;;;;;19.82;63.63;100421.50;5051249;28;20045;-72
2022/10/15 10:22:51;;;;;;;10.82;8.50;;;;;;;19.81;63.49;100421.66;5050643;28;20560;-72
2022/10/15 10:25:36;;;;;;;14.40;8.98;;;;;;;19.76;63.75;100416.75;5051411;28;20396;-72
2022/10/15 10:28:13;;;;;;;13.88;9.55;;;;;;;19.78;63.91;100411.13;5051479;28;20041;-72
2022/10/15 10:30:48;;;;;;;14.63;8.82;;;;;;;19.78;63.88;100414.69;5049857;28;20091;-72
2022/10/15 10:33:26;;;;;;;13.90;8.93;;;;;;;19.78;63.97;100413.84;5049476;28;20511;-73
2022/10/15 10:35:55;;;;;;;10.32;7.72;;;;;;;19.79;64.08;100412.81;5050949;28;20041;-72
2022/10/15 10:38:25;;;;;;;11.20;7.10;;;;;;;19.79;64.09;100412.81;5033056;28;20047;-71
2022/10/15 10:40:55;;;;;;;10.27;7.43;;;;;;;19.79;64.31;100421.00;5050134;28;20103;-71
2022/10/15 10:43:28;;;;;;;9.80;7.10;;;;;;;19.79;64.16;100412.81;5049568;28;20053;-72
2022/10/15 10:46:16;;;;;;;11.25;7.53;;;;;;;19.80;64.49;100411.78;5051063;28;20053;-71
2022/10/15 10:48:51;;;;;;;10.00;6.75;;;;;;;19.82;64.43;100407.00;5051099;28;20498;-72
2022/10/15 10:51:24;;;;;;;10.07;6.20;;;;;;;19.84;64.66;100410.41;5050474;28;20491;-72
2022/10/15 10:56:28;;;;;;;8.25;5.20;;;;;;;19.86;64.50;100416.53;5050701;28;20041;-71
2022/10/15 10:59:00;;;;;;;8.20;5.80;;;;;;;19.86;64.69;100413.81;5049603;28;20044;-72
2022/10/15 11:01:28;;;;;;;7.13;4.65;;;;;;;19.88;65.01;100409.88;5050950;28;20487;-73
2022/10/15 11:03:58;;;;;;;6.15;4.75;;;;;;;19.91;65.10;100417.69;5050591;28;20446;-72
2022/10/15 11:06:40;;;;;;;7.30;4.43;;;;;;;19.93;64.79;100412.91;5049904;28;20415;-72
2022/10/15 11:09:45;;;;;;;6.65;4.70;;;;;;;19.93;65.03;100412.06;5050884;28;20046;-72
2022/10/15 11:12:50;;;;;;;6.35;4.63;;;;;;;19.94;64.86;100397.41;5049604;28;20041;-72
2022/10/15 11:15:47;;;;;;;4.97;4.13;;;;;;;19.96;64.97;100395.34;5050704;28;20577;-71
2022/10/15 11:18:25;;;;;;;5.97;4.15;;;;;;;19.99;64.83;100404.00;5050671;28;20336;-71
2022/10/15 11:21:07;;;;;;;6.22;4.10;;;;;;;20.02;64.88;100397.34;5050751;28;20049;-71
2022/10/15 11:24:01;;;;;;;4.22;3.80;;;;;;;20.04;64.94;100395.28;5030741;28;20497;-72
2022/10/15 11:26:50;;;;;;;6.18;4.40;;;;;;;20.07;65.21;100394.94;5030308;28;20080;-72
2022/10/15 11:30:09;;;;;;;4.72;3.90;;;;;;;20.10;65.15;100391.88;5035428;28;20037;-73
2022/10/15 11:32:47;;;;;;;6.22;3.67;;;;;;;20.12;64.76;100389.81;5053285;28;20043;-71
2022/10/15 11:35:45;;;;;;;7.93;4.20;;;;;;;20.14;65.00;100386.91;5052875;28;20136;-72
2022/10/15 11:38:34;;;;;;;4.65;3.75;;;;;;;20.18;64.93;100385.50;5054553;28;20045;-71
2022/10/15 11:41:09;;;;;;;7.93;3.70;;;;;;;20.19;65.21;100390.78;5052549;28;20048;-72
2022/10/15 11:43:47;;;;;;;4.07;3.33;;;;;;;20.20;65.29;100391.63;5053049;28;20091;-71